sensor_id;sensor_type;location;lat;lon;timestamp;P1;durP1;ratioP1;P2;durP2;ratioP2
76475;SDS011;65308;50.078;14.854;2022-12-18T00:01:32;47.38;;;19.45;;
76475;SDS011;65308;50.078;14.854;2022-12-18T00:04:01;57.72;;;20.38;;
76475;SDS011;65308;50.078;14.854;2022-12-18T00:06:32;143.75;;;42.38;;
76475;SDS011;65308;50.078;14.854;2022-12-18T00:09:00;179.20;;;49.17;;
76475;SDS011;65308;50.078;14.854;2022-12-18T00:11:28;65.53;;;27.42;;
76475;SDS011;65308;50.078;14.854;2022-12-18T00:13:57;54.35;;;18.85;;
76475;SDS011;65308;50.078;14.854;2022-12-18T00:16:26;34.13;;;13.82;;
76475;SDS011;65308;50.078;14.854;2022-12-18T00:18:55;45.63;;;15.70;;
76475;SDS011;65308;50.078;14.854;2022-12-18T00:21:26;39.53;;;14.13;;
76475;SDS011;65308;50.078;14.854;2022-12-18T00:23:54;40.03;;;15.90;;
76475;SDS011;65308;50.078;14.854;2022-12-18T00:26:21;37.03;;;13.65;;
76475;SDS011;65308;50.078;14.854;2022-12-18T00:28:50;39.10;;;15.68;;
76475;SDS011;65308;50.078;14.854;2022-12-18T00:31:18;39.03;;;15.73;;
76475;SDS011;65308;50.078;14.854;2022-12-18T00:33:47;39.42;;;13.95;;
76475;SDS011;65308;50.078;14.854;2022-12-18T00:36:14;46.10;;;15.43;;
76475;SDS011;65308;50.078;14.854;2022-12-18T00:38:43;49.67;;;16.02;;
76475;SDS011;65308;50.078;14.854;2022-12-18T00:41:11;43.22;;;17.35;;
76475;SDS011;65308;50.078;14.854;2022-12-18T00:43:38;43.97;;;15.35;;
76475;SDS011;65308;50.078;14.854;2022-12-18T00:46:05;52.35;;;19.35;;
76475;SDS011;65308;50.078;14.854;2022-12-18T00:48:32;51.97;;;18.85;;
76475;SDS011;65308;50.078;14.854;2022-12-18T00:51:00;46.33;;;17.08;;
76475;SDS011;65308;50.078;14.854;2022-12-18T00:53:26;57.55;;;21.65;;
76475;SDS011;65308;50.078;14.854;2022-12-18T00:55:53;52.90;;;17.67;;
76475;SDS011;65308;50.078;14.854;2022-12-18T00:58:20;54.80;;;20.52;;
76475;SDS011;65308;50.078;14.854;2022-12-18T01:00:46;46.97;;;17.27;;
76475;SDS011;65308;50.078;14.854;2022-12-18T01:03:13;42.40;;;17.50;;
76475;SDS011;65308;50.078;14.854;2022-12-18T01:05:40;45.65;;;18.05;;
76475;SDS011;65308;50.078;14.854;2022-12-18T01:08:09;48.85;;;17.08;;
76475;SDS011;65308;50.078;14.854;2022-12-18T01:10:36;42.20;;;14.95;;
76475;SDS011;65308;50.078;14.854;2022-12-18T01:13:05;54.50;;;19.63;;
76475;SDS011;65308;50.078;14.854;2022-12-18T01:15:32;42.63;;;15.05;;
76475;SDS011;65308;50.078;14.854;2022-12-18T01:17:59;45.90;;;15.48;;
76475;SDS011;65308;50.078;14.854;2022-12-18T01:20:26;43.83;;;15.60;;
76475;SDS011;65308;50.078;14.854;2022-12-18T01:22:52;53.50;;;18.98;;
76475;SDS011;65308;50.078;14.854;2022-12-18T01:25:21;38.85;;;15.27;;
76475;SDS011;65308;50.078;14.854;2022-12-18T01:27:47;46.30;;;17.27;;
76475;SDS011;65308;50.078;14.854;2022-12-18T01:30:14;41.45;;;14.35;;
76475;SDS011;65308;50.078;14.854;2022-12-18T01:32:41;43.97;;;15.35;;
76475;SDS011;65308;50.078;14.854;2022-12-18T01:35:08;45.92;;;17.75;;
76475;SDS011;65308;50.078;14.854;2022-12-18T01:37:34;43.95;;;17.70;;
76475;SDS011;65308;50.078;14.854;2022-12-18T01:40:01;57.97;;;19.75;;
76475;SDS011;65308;50.078;14.854;2022-12-18T01:42:30;45.28;;;16.83;;
76475;SDS011;65308;50.078;14.854;2022-12-18T01:45:00;41.90;;;16.80;;
76475;SDS011;65308;50.078;14.854;2022-12-18T01:47:46;42.78;;;14.35;;
76475;SDS011;65308;50.078;14.854;2022-12-18T01:50:15;43.75;;;15.50;;
76475;SDS011;65308;50.078;14.854;2022-12-18T01:52:45;40.28;;;16.33;;
76475;SDS011;65308;50.078;14.854;2022-12-18T01:55:15;49.13;;;17.77;;
76475;SDS011;65308;50.078;14.854;2022-12-18T01:57:45;41.00;;;15.27;;
76475;SDS011;65308;50.078;14.854;2022-12-18T02:00:14;44.10;;;16.38;;
76475;SDS011;65308;50.078;14.854;2022-12-18T02:02:44;40.97;;;14.35;;
76475;SDS011;65308;50.078;14.854;2022-12-18T02:05:14;40.70;;;15.63;;
76475;SDS011;65308;50.078;14.854;2022-12-18T02:07:45;39.80;;;14.02;;
76475;SDS011;65308;50.078;14.854;2022-12-18T02:10:23;40.78;;;16.15;;
76475;SDS011;65308;50.078;14.854;2022-12-18T02:12:56;44.47;;;15.63;;
76475;SDS011;65308;50.078;14.854;2022-12-18T02:15:31;38.83;;;15.40;;
76475;SDS011;65308;50.078;14.854;2022-12-18T02:18:05;41.75;;;17.30;;
76475;SDS011;65308;50.078;14.854;2022-12-18T02:20:38;41.88;;;16.85;;
76475;SDS011;65308;50.078;14.854;2022-12-18T02:23:12;40.13;;;16.50;;
76475;SDS011;65308;50.078;14.854;2022-12-18T02:25:54;46.47;;;16.08;;
76475;SDS011;65308;50.078;14.854;2022-12-18T02:28:31;47.10;;;16.58;;
76475;SDS011;65308;50.078;14.854;2022-12-18T02:31:02;40.53;;;15.57;;
76475;SDS011;65308;50.078;14.854;2022-12-18T02:33:32;50.80;;;17.15;;
76475;SDS011;65308;50.078;14.854;2022-12-18T02:36:01;43.80;;;16.20;;
76475;SDS011;65308;50.078;14.854;2022-12-18T02:38:30;44.17;;;16.83;;
76475;SDS011;65308;50.078;14.854;2022-12-18T02:40:59;51.83;;;19.38;;
76475;SDS011;65308;50.078;14.854;2022-12-18T02:43:26;43.70;;;15.98;;
76475;SDS011;65308;50.078;14.854;2022-12-18T02:45:53;40.78;;;16.75;;
76475;SDS011;65308;50.078;14.854;2022-12-18T02:48:23;42.88;;;15.88;;
76475;SDS011;65308;50.078;14.854;2022-12-18T02:50:55;41.80;;;16.80;;
76475;SDS011;65308;50.078;14.854;2022-12-18T02:53:30;51.25;;;17.08;;
76475;SDS011;65308;50.078;14.854;2022-12-18T02:56:05;43.08;;;17.35;;
76475;SDS011;65308;50.078;14.854;2022-12-18T02:58:39;50.38;;;18.60;;
76475;SDS011;65308;50.078;14.854;2022-12-18T03:01:11;46.60;;;18.00;;
76475;SDS011;65308;50.078;14.854;2022-12-18T03:03:42;41.42;;;16.77;;
76475;SDS011;65308;50.078;14.854;2022-12-18T03:06:17;42.10;;;16.77;;
76475;SDS011;65308;50.078;14.854;2022-12-18T03:08:51;42.17;;;17.55;;
76475;SDS011;65308;50.078;14.854;2022-12-18T03:11:24;45.15;;;18.13;;
76475;SDS011;65308;50.078;14.854;2022-12-18T03:14:07;42.33;;;15.93;;
76475;SDS011;65308;50.078;14.854;2022-12-18T03:16:36;47.28;;;20.23;;
76475;SDS011;65308;50.078;14.854;2022-12-18T03:19:04;50.95;;;20.25;;
76475;SDS011;65308;50.078;14.854;2022-12-18T03:21:35;59.00;;;23.15;;
76475;SDS011;65308;50.078;14.854;2022-12-18T03:24:04;46.85;;;18.25;;
76475;SDS011;65308;50.078;14.854;2022-12-18T03:26:35;41.15;;;17.98;;
76475;SDS011;65308;50.078;14.854;2022-12-18T03:29:06;45.63;;;17.45;;
76475;SDS011;65308;50.078;14.854;2022-12-18T03:31:35;43.92;;;16.95;;
76475;SDS011;65308;50.078;14.854;2022-12-18T03:34:09;42.63;;;17.92;;
76475;SDS011;65308;50.078;14.854;2022-12-18T03:36:40;39.20;;;16.55;;
76475;SDS011;65308;50.078;14.854;2022-12-18T03:39:07;38.85;;;16.65;;
76475;SDS011;65308;50.078;14.854;2022-12-18T03:41:37;41.95;;;16.23;;
76475;SDS011;65308;50.078;14.854;2022-12-18T03:44:11;37.53;;;15.13;;
76475;SDS011;65308;50.078;14.854;2022-12-18T03:46:41;43.25;;;17.13;;
76475;SDS011;65308;50.078;14.854;2022-12-18T03:49:14;37.35;;;14.75;;
76475;SDS011;65308;50.078;14.854;2022-12-18T03:51:52;39.55;;;15.93;;
76475;SDS011;65308;50.078;14.854;2022-12-18T03:54:23;38.17;;;16.75;;
76475;SDS011;65308;50.078;14.854;2022-12-18T03:56:58;41.50;;;17.63;;
76475;SDS011;65308;50.078;14.854;2022-12-18T03:59:28;38.00;;;15.73;;
76475;SDS011;65308;50.078;14.854;2022-12-18T04:01:58;40.10;;;15.90;;
76475;SDS011;65308;50.078;14.854;2022-12-18T04:04:27;43.63;;;15.55;;
76475;SDS011;65308;50.078;14.854;2022-12-18T04:06:55;41.17;;;15.38;;
76475;SDS011;65308;50.078;14.854;2022-12-18T04:11:50;38.88;;;15.35;;
76475;SDS011;65308;50.078;14.854;2022-12-18T04:14:19;38.53;;;14.40;;
76475;SDS011;65308;50.078;14.854;2022-12-18T04:16:46;40.33;;;15.05;;
76475;SDS011;65308;50.078;14.854;2022-12-18T04:19:13;39.33;;;14.85;;
76475;SDS011;65308;50.078;14.854;2022-12-18T04:21:39;39.72;;;15.75;;
76475;SDS011;65308;50.078;14.854;2022-12-18T04:24:06;41.15;;;15.43;;
76475;SDS011;65308;50.078;14.854;2022-12-18T04:26:33;40.70;;;15.40;;
76475;SDS011;65308;50.078;14.854;2022-12-18T04:29:00;39.35;;;15.13;;
76475;SDS011;65308;50.078;14.854;2022-12-18T04:31:28;38.28;;;15.23;;
76475;SDS011;65308;50.078;14.854;2022-12-18T04:33:55;33.05;;;14.05;;
76475;SDS011;65308;50.078;14.854;2022-12-18T04:36:28;39.03;;;14.48;;
76475;SDS011;65308;50.078;14.854;2022-12-18T04:38:54;37.30;;;15.57;;
76475;SDS011;65308;50.078;14.854;2022-12-18T04:41:21;34.63;;;14.23;;
76475;SDS011;65308;50.078;14.854;2022-12-18T04:43:48;34.67;;;14.63;;
76475;SDS011;65308;50.078;14.854;2022-12-18T04:46:15;37.20;;;15.73;;
76475;SDS011;65308;50.078;14.854;2022-12-18T04:48:49;37.72;;;14.77;;
76475;SDS011;65308;50.078;14.854;2022-12-18T04:51:16;38.75;;;14.75;;
76475;SDS011;65308;50.078;14.854;2022-12-18T04:53:42;36.85;;;14.43;;
76475;SDS011;65308;50.078;14.854;2022-12-18T04:56:09;38.33;;;15.20;;
76475;SDS011;65308;50.078;14.854;2022-12-18T04:58:38;38.65;;;15.38;;
76475;SDS011;65308;50.078;14.854;2022-12-18T05:01:06;38.95;;;14.00;;
76475;SDS011;65308;50.078;14.854;2022-12-18T05:06:05;35.17;;;13.82;;
76475;SDS011;65308;50.078;14.854;2022-12-18T05:08:33;36.10;;;15.20;;
76475;SDS011;65308;50.078;14.854;2022-12-18T05:10:59;36.78;;;13.70;;
76475;SDS011;65308;50.078;14.854;2022-12-18T05:13:26;36.03;;;16.25;;
76475;SDS011;65308;50.078;14.854;2022-12-18T05:15:56;36.78;;;14.75;;
76475;SDS011;65308;50.078;14.854;2022-12-18T05:18:28;39.92;;;16.17;;
76475;SDS011;65308;50.078;14.854;2022-12-18T05:20:55;38.15;;;16.23;;
76475;SDS011;65308;50.078;14.854;2022-12-18T05:23:24;36.70;;;15.45;;
76475;SDS011;65308;50.078;14.854;2022-12-18T05:25:51;38.47;;;15.77;;
76475;SDS011;65308;50.078;14.854;2022-12-18T05:28:20;39.85;;;15.98;;
76475;SDS011;65308;50.078;14.854;2022-12-18T05:30:47;41.22;;;17.15;;
76475;SDS011;65308;50.078;14.854;2022-12-18T05:33:15;35.67;;;14.90;;
76475;SDS011;65308;50.078;14.854;2022-12-18T05:35:42;35.95;;;15.98;;
76475;SDS011;65308;50.078;14.854;2022-12-18T05:38:08;36.53;;;16.63;;
76475;SDS011;65308;50.078;14.854;2022-12-18T05:40:36;40.35;;;16.23;;
76475;SDS011;65308;50.078;14.854;2022-12-18T05:43:06;78.35;;;29.58;;
76475;SDS011;65308;50.078;14.854;2022-12-18T05:45:48;64.72;;;24.42;;
76475;SDS011;65308;50.078;14.854;2022-12-18T05:48:18;54.35;;;21.75;;
76475;SDS011;65308;50.078;14.854;2022-12-18T05:50:47;53.10;;;19.90;;
76475;SDS011;65308;50.078;14.854;2022-12-18T05:53:16;52.67;;;21.17;;
76475;SDS011;65308;50.078;14.854;2022-12-18T05:55:46;55.33;;;22.48;;
76475;SDS011;65308;50.078;14.854;2022-12-18T05:58:13;49.22;;;20.80;;
76475;SDS011;65308;50.078;14.854;2022-12-18T06:00:40;44.40;;;16.73;;
76475;SDS011;65308;50.078;14.854;2022-12-18T06:03:10;54.30;;;21.73;;
76475;SDS011;65308;50.078;14.854;2022-12-18T06:05:38;45.00;;;19.33;;
76475;SDS011;65308;50.078;14.854;2022-12-18T06:08:07;40.05;;;16.33;;
76475;SDS011;65308;50.078;14.854;2022-12-18T06:10:34;49.10;;;21.48;;
76475;SDS011;65308;50.078;14.854;2022-12-18T06:13:02;45.38;;;19.05;;
76475;SDS011;65308;50.078;14.854;2022-12-18T06:15:29;47.58;;;21.13;;
76475;SDS011;65308;50.078;14.854;2022-12-18T06:17:56;43.75;;;20.80;;
76475;SDS011;65308;50.078;14.854;2022-12-18T06:20:22;49.60;;;20.83;;
76475;SDS011;65308;50.078;14.854;2022-12-18T06:22:49;45.67;;;19.75;;
76475;SDS011;65308;50.078;14.854;2022-12-18T06:25:17;46.10;;;20.25;;
76475;SDS011;65308;50.078;14.854;2022-12-18T06:27:44;54.70;;;21.65;;
76475;SDS011;65308;50.078;14.854;2022-12-18T06:30:15;42.95;;;17.80;;
76475;SDS011;65308;50.078;14.854;2022-12-18T06:32:41;65.65;;;28.45;;
76475;SDS011;65308;50.078;14.854;2022-12-18T06:35:09;44.22;;;18.63;;
76475;SDS011;65308;50.078;14.854;2022-12-18T06:37:36;44.97;;;19.45;;
76475;SDS011;65308;50.078;14.854;2022-12-18T06:40:03;42.47;;;16.92;;
76475;SDS011;65308;50.078;14.854;2022-12-18T06:42:31;41.72;;;16.95;;
76475;SDS011;65308;50.078;14.854;2022-12-18T06:44:57;36.85;;;15.55;;
76475;SDS011;65308;50.078;14.854;2022-12-18T06:47:25;41.25;;;17.13;;
76475;SDS011;65308;50.078;14.854;2022-12-18T06:49:52;40.20;;;18.17;;
76475;SDS011;65308;50.078;14.854;2022-12-18T06:52:33;36.85;;;16.02;;
76475;SDS011;65308;50.078;14.854;2022-12-18T06:55:04;43.78;;;18.02;;
76475;SDS011;65308;50.078;14.854;2022-12-18T06:57:34;43.30;;;20.67;;
76475;SDS011;65308;50.078;14.854;2022-12-18T07:00:01;48.92;;;18.65;;
76475;SDS011;65308;50.078;14.854;2022-12-18T07:05:12;47.88;;;18.33;;
76475;SDS011;65308;50.078;14.854;2022-12-18T07:07:39;44.67;;;18.48;;
76475;SDS011;65308;50.078;14.854;2022-12-18T07:10:06;46.47;;;19.00;;
76475;SDS011;65308;50.078;14.854;2022-12-18T07:12:33;41.90;;;19.05;;
76475;SDS011;65308;50.078;14.854;2022-12-18T07:14:59;46.28;;;19.70;;
76475;SDS011;65308;50.078;14.854;2022-12-18T07:17:26;48.55;;;20.30;;
76475;SDS011;65308;50.078;14.854;2022-12-18T07:19:53;44.97;;;18.58;;
76475;SDS011;65308;50.078;14.854;2022-12-18T07:22:27;35.30;;;16.15;;
76475;SDS011;65308;50.078;14.854;2022-12-18T07:24:58;42.53;;;17.52;;
76475;SDS011;65308;50.078;14.854;2022-12-18T07:27:25;33.47;;;13.23;;
76475;SDS011;65308;50.078;14.854;2022-12-18T07:29:52;28.05;;;11.27;;
76475;SDS011;65308;50.078;14.854;2022-12-18T07:32:20;34.35;;;13.32;;
76475;SDS011;65308;50.078;14.854;2022-12-18T07:34:47;35.13;;;12.70;;
76475;SDS011;65308;50.078;14.854;2022-12-18T07:37:14;39.45;;;15.10;;
76475;SDS011;65308;50.078;14.854;2022-12-18T07:39:42;28.63;;;11.68;;
76475;SDS011;65308;50.078;14.854;2022-12-18T07:42:09;37.33;;;13.63;;
76475;SDS011;65308;50.078;14.854;2022-12-18T07:44:53;28.45;;;11.40;;
76475;SDS011;65308;50.078;14.854;2022-12-18T07:47:20;33.55;;;12.02;;
76475;SDS011;65308;50.078;14.854;2022-12-18T07:49:46;30.73;;;10.98;;
76475;SDS011;65308;50.078;14.854;2022-12-18T07:52:13;31.25;;;10.50;;
76475;SDS011;65308;50.078;14.854;2022-12-18T07:54:43;35.10;;;11.45;;
76475;SDS011;65308;50.078;14.854;2022-12-18T07:57:11;32.53;;;12.25;;
76475;SDS011;65308;50.078;14.854;2022-12-18T07:59:39;35.42;;;11.88;;
76475;SDS011;65308;50.078;14.854;2022-12-18T08:02:06;33.67;;;13.98;;
76475;SDS011;65308;50.078;14.854;2022-12-18T08:04:36;36.15;;;11.55;;
76475;SDS011;65308;50.078;14.854;2022-12-18T08:07:02;27.33;;;9.50;;
76475;SDS011;65308;50.078;14.854;2022-12-18T08:09:29;35.78;;;11.93;;
76475;SDS011;65308;50.078;14.854;2022-12-18T08:11:57;36.47;;;13.68;;
76475;SDS011;65308;50.078;14.854;2022-12-18T08:14:24;42.75;;;15.05;;
76475;SDS011;65308;50.078;14.854;2022-12-18T08:16:51;43.83;;;13.43;;
76475;SDS011;65308;50.078;14.854;2022-12-18T08:19:17;41.83;;;13.20;;
76475;SDS011;65308;50.078;14.854;2022-12-18T08:21:44;34.85;;;12.82;;
76475;SDS011;65308;50.078;14.854;2022-12-18T08:24:11;32.65;;;12.45;;
76475;SDS011;65308;50.078;14.854;2022-12-18T08:26:37;32.50;;;12.85;;
76475;SDS011;65308;50.078;14.854;2022-12-18T08:29:05;29.45;;;10.02;;
76475;SDS011;65308;50.078;14.854;2022-12-18T08:33:59;28.95;;;9.40;;
76475;SDS011;65308;50.078;14.854;2022-12-18T08:36:25;24.38;;;8.70;;
76475;SDS011;65308;50.078;14.854;2022-12-18T08:38:52;31.35;;;10.90;;
76475;SDS011;65308;50.078;14.854;2022-12-18T08:41:20;24.17;;;8.73;;
76475;SDS011;65308;50.078;14.854;2022-12-18T08:43:47;25.40;;;8.88;;
76475;SDS011;65308;50.078;14.854;2022-12-18T08:46:34;32.75;;;10.95;;
76475;SDS011;65308;50.078;14.854;2022-12-18T08:49:03;32.67;;;10.82;;
76475;SDS011;65308;50.078;14.854;2022-12-18T08:51:30;36.63;;;13.57;;
76475;SDS011;65308;50.078;14.854;2022-12-18T08:53:57;33.42;;;11.95;;
76475;SDS011;65308;50.078;14.854;2022-12-18T08:56:24;30.33;;;10.20;;
76475;SDS011;65308;50.078;14.854;2022-12-18T08:58:51;27.40;;;9.35;;
76475;SDS011;65308;50.078;14.854;2022-12-18T09:01:18;34.33;;;11.85;;
76475;SDS011;65308;50.078;14.854;2022-12-18T09:03:47;33.42;;;14.10;;
76475;SDS011;65308;50.078;14.854;2022-12-18T09:06:14;26.17;;;9.50;;
76475;SDS011;65308;50.078;14.854;2022-12-18T09:08:42;27.48;;;10.65;;
76475;SDS011;65308;50.078;14.854;2022-12-18T09:11:11;34.78;;;11.80;;
76475;SDS011;65308;50.078;14.854;2022-12-18T09:13:40;28.55;;;9.70;;
76475;SDS011;65308;50.078;14.854;2022-12-18T09:16:07;34.33;;;12.32;;
76475;SDS011;65308;50.078;14.854;2022-12-18T09:18:33;32.67;;;10.52;;
76475;SDS011;65308;50.078;14.854;2022-12-18T09:21:08;25.75;;;9.52;;
76475;SDS011;65308;50.078;14.854;2022-12-18T09:23:35;27.75;;;10.15;;
76475;SDS011;65308;50.078;14.854;2022-12-18T09:26:02;30.92;;;10.88;;
76475;SDS011;65308;50.078;14.854;2022-12-18T09:28:29;30.70;;;10.60;;
76475;SDS011;65308;50.078;14.854;2022-12-18T09:30:55;31.52;;;11.45;;
76475;SDS011;65308;50.078;14.854;2022-12-18T09:33:22;29.13;;;10.40;;
76475;SDS011;65308;50.078;14.854;2022-12-18T09:35:49;30.60;;;11.48;;
76475;SDS011;65308;50.078;14.854;2022-12-18T09:38:18;31.27;;;11.10;;
76475;SDS011;65308;50.078;14.854;2022-12-18T09:40:46;30.27;;;9.95;;
76475;SDS011;65308;50.078;14.854;2022-12-18T09:43:15;22.42;;;8.68;;
76475;SDS011;65308;50.078;14.854;2022-12-18T09:45:46;25.88;;;9.20;;
76475;SDS011;65308;50.078;14.854;2022-12-18T09:48:18;30.83;;;9.93;;
76475;SDS011;65308;50.078;14.854;2022-12-18T09:50:47;25.83;;;8.80;;
76475;SDS011;65308;50.078;14.854;2022-12-18T09:53:19;29.25;;;10.00;;
76475;SDS011;65308;50.078;14.854;2022-12-18T09:55:49;28.55;;;10.68;;
76475;SDS011;65308;50.078;14.854;2022-12-18T09:58:19;25.90;;;9.80;;
76475;SDS011;65308;50.078;14.854;2022-12-18T10:00:51;30.38;;;9.77;;
76475;SDS011;65308;50.078;14.854;2022-12-18T10:03:18;32.97;;;10.70;;
76475;SDS011;65308;50.078;14.854;2022-12-18T10:05:46;26.42;;;9.15;;
76475;SDS011;65308;50.078;14.854;2022-12-18T10:08:24;48.38;;;14.30;;
76475;SDS011;65308;50.078;14.854;2022-12-18T10:11:01;29.05;;;10.18;;
76475;SDS011;65308;50.078;14.854;2022-12-18T10:13:38;25.65;;;8.70;;
76475;SDS011;65308;50.078;14.854;2022-12-18T10:16:09;32.95;;;11.18;;
76475;SDS011;65308;50.078;14.854;2022-12-18T10:18:50;28.15;;;8.50;;
76475;SDS011;65308;50.078;14.854;2022-12-18T10:21:31;25.35;;;9.65;;
76475;SDS011;65308;50.078;14.854;2022-12-18T10:24:08;31.83;;;10.18;;
76475;SDS011;65308;50.078;14.854;2022-12-18T10:26:43;25.05;;;8.00;;
76475;SDS011;65308;50.078;14.854;2022-12-18T10:29:12;21.17;;;8.23;;
76475;SDS011;65308;50.078;14.854;2022-12-18T10:31:40;28.92;;;10.55;;
76475;SDS011;65308;50.078;14.854;2022-12-18T10:34:09;26.13;;;8.40;;
76475;SDS011;65308;50.078;14.854;2022-12-18T10:36:44;31.73;;;10.48;;
76475;SDS011;65308;50.078;14.854;2022-12-18T10:39:16;28.42;;;9.85;;
76475;SDS011;65308;50.078;14.854;2022-12-18T10:41:44;26.67;;;10.05;;
76475;SDS011;65308;50.078;14.854;2022-12-18T10:44:12;22.23;;;8.48;;
76475;SDS011;65308;50.078;14.854;2022-12-18T10:46:43;27.92;;;9.88;;
76475;SDS011;65308;50.078;14.854;2022-12-18T10:49:18;30.05;;;9.98;;
76475;SDS011;65308;50.078;14.854;2022-12-18T10:51:47;27.13;;;8.13;;
76475;SDS011;65308;50.078;14.854;2022-12-18T10:54:16;25.02;;;9.10;;
76475;SDS011;65308;50.078;14.854;2022-12-18T10:56:47;22.77;;;8.93;;
76475;SDS011;65308;50.078;14.854;2022-12-18T10:59:15;21.20;;;8.07;;
76475;SDS011;65308;50.078;14.854;2022-12-18T11:01:47;26.02;;;8.75;;
76475;SDS011;65308;50.078;14.854;2022-12-18T11:04:17;24.38;;;10.73;;
76475;SDS011;65308;50.078;14.854;2022-12-18T11:06:55;22.48;;;8.27;;
76475;SDS011;65308;50.078;14.854;2022-12-18T11:09:29;26.33;;;10.73;;
76475;SDS011;65308;50.078;14.854;2022-12-18T11:11:58;26.05;;;10.85;;
76475;SDS011;65308;50.078;14.854;2022-12-18T11:14:28;26.17;;;11.07;;
76475;SDS011;65308;50.078;14.854;2022-12-18T11:16:57;24.15;;;9.05;;
76475;SDS011;65308;50.078;14.854;2022-12-18T11:19:30;23.33;;;7.90;;
76475;SDS011;65308;50.078;14.854;2022-12-18T11:22:00;29.45;;;10.48;;
76475;SDS011;65308;50.078;14.854;2022-12-18T11:26:57;22.90;;;8.75;;
76475;SDS011;65308;50.078;14.854;2022-12-18T11:29:31;27.38;;;10.10;;
76475;SDS011;65308;50.078;14.854;2022-12-18T11:32:18;27.00;;;8.88;;
76475;SDS011;65308;50.078;14.854;2022-12-18T11:34:51;24.08;;;7.85;;
76475;SDS011;65308;50.078;14.854;2022-12-18T11:37:21;27.77;;;11.20;;
76475;SDS011;65308;50.078;14.854;2022-12-18T11:39:51;20.58;;;8.35;;
76475;SDS011;65308;50.078;14.854;2022-12-18T11:42:23;24.95;;;10.77;;
76475;SDS011;65308;50.078;14.854;2022-12-18T11:44:54;23.02;;;10.57;;
76475;SDS011;65308;50.078;14.854;2022-12-18T11:47:26;20.92;;;8.43;;
76475;SDS011;65308;50.078;14.854;2022-12-18T11:49:59;29.48;;;9.77;;
76475;SDS011;65308;50.078;14.854;2022-12-18T11:52:28;28.42;;;10.38;;
76475;SDS011;65308;50.078;14.854;2022-12-18T11:55:04;22.75;;;9.57;;
76475;SDS011;65308;50.078;14.854;2022-12-18T11:57:37;26.45;;;9.30;;
76475;SDS011;65308;50.078;14.854;2022-12-18T12:00:11;22.30;;;9.18;;
76475;SDS011;65308;50.078;14.854;2022-12-18T12:03:06;24.20;;;9.45;;
76475;SDS011;65308;50.078;14.854;2022-12-18T12:05:44;25.23;;;9.18;;
76475;SDS011;65308;50.078;14.854;2022-12-18T12:08:24;20.75;;;8.98;;
76475;SDS011;65308;50.078;14.854;2022-12-18T12:11:03;22.73;;;8.75;;
76475;SDS011;65308;50.078;14.854;2022-12-18T12:13:37;23.83;;;10.00;;
76475;SDS011;65308;50.078;14.854;2022-12-18T12:16:15;24.50;;;9.82;;
76475;SDS011;65308;50.078;14.854;2022-12-18T12:18:56;37.65;;;15.30;;
76475;SDS011;65308;50.078;14.854;2022-12-18T12:21:35;27.45;;;9.27;;
76475;SDS011;65308;50.078;14.854;2022-12-18T12:24:10;26.40;;;10.57;;
76475;SDS011;65308;50.078;14.854;2022-12-18T12:26:52;20.67;;;7.93;;
76475;SDS011;65308;50.078;14.854;2022-12-18T12:29:33;25.63;;;9.70;;
76475;SDS011;65308;50.078;14.854;2022-12-18T12:32:12;19.48;;;8.13;;
76475;SDS011;65308;50.078;14.854;2022-12-18T12:34:49;22.27;;;8.57;;
76475;SDS011;65308;50.078;14.854;2022-12-18T12:37:29;25.38;;;10.55;;
76475;SDS011;65308;50.078;14.854;2022-12-18T12:40:03;20.67;;;8.52;;
76475;SDS011;65308;50.078;14.854;2022-12-18T12:42:32;23.48;;;8.45;;
76475;SDS011;65308;50.078;14.854;2022-12-18T12:45:30;28.35;;;11.77;;
76475;SDS011;65308;50.078;14.854;2022-12-18T12:48:01;41.55;;;18.05;;
76475;SDS011;65308;50.078;14.854;2022-12-18T12:50:30;20.10;;;9.48;;
76475;SDS011;65308;50.078;14.854;2022-12-18T12:53:00;27.45;;;11.27;;
76475;SDS011;65308;50.078;14.854;2022-12-18T12:55:32;27.88;;;11.38;;
76475;SDS011;65308;50.078;14.854;2022-12-18T12:58:02;21.30;;;10.00;;
76475;SDS011;65308;50.078;14.854;2022-12-18T13:00:39;23.92;;;8.77;;
76475;SDS011;65308;50.078;14.854;2022-12-18T13:05:41;24.15;;;8.90;;
76475;SDS011;65308;50.078;14.854;2022-12-18T13:08:21;24.23;;;10.65;;
76475;SDS011;65308;50.078;14.854;2022-12-18T13:10:50;27.60;;;10.45;;
76475;SDS011;65308;50.078;14.854;2022-12-18T13:13:49;24.05;;;9.48;;
76475;SDS011;65308;50.078;14.854;2022-12-18T13:16:18;27.48;;;11.02;;
76475;SDS011;65308;50.078;14.854;2022-12-18T13:18:50;26.90;;;9.48;;
76475;SDS011;65308;50.078;14.854;2022-12-18T13:21:20;25.85;;;10.07;;
76475;SDS011;65308;50.078;14.854;2022-12-18T13:23:49;25.50;;;10.68;;
76475;SDS011;65308;50.078;14.854;2022-12-18T13:29:06;28.38;;;11.18;;
76475;SDS011;65308;50.078;14.854;2022-12-18T13:34:27;24.42;;;11.10;;
76475;SDS011;65308;50.078;14.854;2022-12-18T13:36:56;27.05;;;12.00;;
76475;SDS011;65308;50.078;14.854;2022-12-18T13:39:30;27.38;;;10.45;;
76475;SDS011;65308;50.078;14.854;2022-12-18T13:45:37;24.25;;;9.60;;
76475;SDS011;65308;50.078;14.854;2022-12-18T13:48:14;23.42;;;9.30;;
76475;SDS011;65308;50.078;14.854;2022-12-18T13:50:43;26.67;;;9.93;;
76475;SDS011;65308;50.078;14.854;2022-12-18T13:53:15;26.33;;;10.07;;
76475;SDS011;65308;50.078;14.854;2022-12-18T13:55:47;26.73;;;11.02;;
76475;SDS011;65308;50.078;14.854;2022-12-18T14:00:44;28.52;;;11.32;;
76475;SDS011;65308;50.078;14.854;2022-12-18T14:03:16;26.70;;;10.75;;
76475;SDS011;65308;50.078;14.854;2022-12-18T14:08:12;22.65;;;10.40;;
76475;SDS011;65308;50.078;14.854;2022-12-18T14:10:41;23.65;;;9.68;;
76475;SDS011;65308;50.078;14.854;2022-12-18T14:13:09;26.08;;;10.77;;
76475;SDS011;65308;50.078;14.854;2022-12-18T14:15:39;27.73;;;12.50;;
76475;SDS011;65308;50.078;14.854;2022-12-18T14:18:14;32.30;;;13.13;;
76475;SDS011;65308;50.078;14.854;2022-12-18T14:20:47;33.00;;;12.38;;
76475;SDS011;65308;50.078;14.854;2022-12-18T14:23:28;26.23;;;10.88;;
76475;SDS011;65308;50.078;14.854;2022-12-18T14:25:57;26.40;;;11.02;;
76475;SDS011;65308;50.078;14.854;2022-12-18T14:28:25;28.90;;;12.77;;
76475;SDS011;65308;50.078;14.854;2022-12-18T14:30:52;22.17;;;9.98;;
76475;SDS011;65308;50.078;14.854;2022-12-18T14:33:21;28.42;;;13.00;;
76475;SDS011;65308;50.078;14.854;2022-12-18T14:35:55;26.08;;;11.93;;
76475;SDS011;65308;50.078;14.854;2022-12-18T14:38:25;24.67;;;9.50;;
76475;SDS011;65308;50.078;14.854;2022-12-18T14:40:54;29.05;;;11.60;;
76475;SDS011;65308;50.078;14.854;2022-12-18T14:43:31;28.42;;;13.38;;
76475;SDS011;65308;50.078;14.854;2022-12-18T14:46:00;23.95;;;11.48;;
76475;SDS011;65308;50.078;14.854;2022-12-18T14:48:37;32.05;;;13.13;;
76475;SDS011;65308;50.078;14.854;2022-12-18T14:51:06;25.55;;;11.75;;
76475;SDS011;65308;50.078;14.854;2022-12-18T14:53:42;30.58;;;11.35;;
76475;SDS011;65308;50.078;14.854;2022-12-18T14:56:14;25.95;;;12.35;;
76475;SDS011;65308;50.078;14.854;2022-12-18T14:58:47;26.33;;;11.32;;